createdAt,value
2022-10-11T00:01:15.785Z,96027.00
2022-10-11T00:03:44.027Z,96021.56
2022-10-11T00:06:12.382Z,95812.94
2022-10-11T00:08:40.637Z,96021.94
2022-10-11T00:11:09.471Z,96023.56
2022-10-11T00:13:37.848Z,96015.28
2022-10-11T00:16:10.749Z,96017.41
2022-10-11T00:18:40.029Z,96007.66
2022-10-11T00:21:10.339Z,96011.72
2022-10-11T00:23:38.799Z,96014.00
2022-10-11T00:26:10.005Z,96007.84
2022-10-11T00:28:38.998Z,96003.84
2022-10-11T00:31:10.176Z,95931.63
2022-10-11T00:33:38.772Z,96004.34
2022-10-11T00:36:08.373Z,96003.94
2022-10-11T00:38:37.175Z,95979.50
2022-10-11T00:41:05.499Z,95999.63
2022-10-11T00:43:34.245Z,95988.59
2022-10-11T00:46:37.605Z,95989.50
2022-10-11T00:49:17.012Z,95982.63
2022-10-11T00:51:51.651Z,95981.22
2022-10-11T00:54:25.380Z,95975.13
2022-10-11T00:57:00.060Z,95974.03
2022-10-11T00:59:32.503Z,95813.34
2022-10-11T01:02:00.702Z,95981.19
2022-10-11T01:04:30.405Z,95978.31
2022-10-11T01:06:59.759Z,95975.84
2022-10-11T01:09:28.356Z,95971.28
2022-10-11T01:11:59.723Z,95961.91
2022-10-11T01:15:00.330Z,95966.94
2022-10-11T01:17:35.836Z,95958.47
2022-10-11T01:20:36.738Z,95961.84
2022-10-11T01:23:42.049Z,95964.94
2022-10-11T01:26:36.722Z,95968.78
2022-10-11T01:29:13.892Z,95953.31
2022-10-11T01:31:50.662Z,95952.91
2022-10-11T01:34:26.904Z,95957.69
2022-10-11T01:37:00.582Z,95956.47
2022-10-11T01:39:35.233Z,95961.94
2022-10-11T01:42:07.765Z,95952.56
2022-10-11T01:44:38.929Z,95939.81
2022-10-11T01:47:09.089Z,95929.44
2022-10-11T01:49:37.308Z,95950.16
2022-10-11T01:52:08.088Z,95947.78
2022-10-11T01:55:09.891Z,95960.00
2022-10-11T01:58:16.370Z,95957.09
2022-10-11T02:00:53.674Z,95947.56
2022-10-11T02:03:34.913Z,95955.47
2022-10-11T02:06:09.889Z,95833.94
2022-10-11T02:08:45.621Z,95951.19
2022-10-11T02:11:21.078Z,95944.16
2022-10-11T02:13:57.238Z,95946.91
2022-10-11T02:16:29.866Z,95943.72
2022-10-11T02:19:01.196Z,95945.78
2022-10-11T02:21:31.418Z,95944.53
2022-10-11T02:24:04.560Z,95876.91
2022-10-11T02:26:35.736Z,95935.84
2022-10-11T02:29:09.431Z,95946.66
2022-10-11T02:31:38.926Z,95943.91
2022-10-11T02:34:14.618Z,95941.38
2022-10-11T02:36:52.135Z,95943.69
2022-10-11T02:39:26.536Z,95945.16
2022-10-11T02:41:59.583Z,95940.03
2022-10-11T02:44:32.461Z,95936.38
2022-10-11T02:47:02.392Z,95943.19
2022-10-11T02:49:33.273Z,95933.59
2022-10-11T02:52:01.555Z,95939.03
2022-10-11T02:54:30.913Z,95934.78
2022-10-11T02:56:59.276Z,95944.19
2022-10-11T02:59:27.526Z,95930.00
2022-10-11T03:01:55.941Z,95944.88
2022-10-11T03:04:24.335Z,95939.16
2022-10-11T03:06:53.939Z,95938.63
2022-10-11T03:09:22.196Z,95942.25
2022-10-11T03:11:50.396Z,95947.53
2022-10-11T03:14:18.639Z,95934.44
2022-10-11T03:16:46.869Z,95938.44
2022-10-11T03:19:19.149Z,95932.88
2022-10-11T03:21:47.832Z,95935.72
2022-10-11T03:24:17.443Z,95937.28
2022-10-11T03:26:45.847Z,95934.75
2022-10-11T03:29:14.175Z,95933.53
2022-10-11T03:31:42.372Z,95929.25
2022-10-11T03:34:10.702Z,95921.00
2022-10-11T03:36:39.035Z,95925.81
2022-10-11T03:39:07.330Z,95940.84
2022-10-11T03:41:37.020Z,95944.13
2022-10-11T03:44:05.907Z,95915.81
2022-10-11T03:46:34.181Z,95938.78
2022-10-11T03:49:02.640Z,95934.03
2022-10-11T03:51:31.357Z,95935.91
2022-10-11T03:54:02.117Z,95933.09
2022-10-11T03:56:30.400Z,95734.78
2022-10-11T03:59:00.040Z,95913.59
2022-10-11T04:01:28.290Z,95926.59
2022-10-11T04:03:57.840Z,95935.03
2022-10-11T04:06:26.034Z,95946.84
2022-10-11T04:08:54.323Z,95940.94
2022-10-11T04:11:22.633Z,95935.97
2022-10-11T04:13:50.846Z,95937.63
2022-10-11T04:16:20.505Z,95921.75
2022-10-11T04:18:48.806Z,95925.47
2022-10-11T04:21:17.029Z,95916.09
2022-10-11T04:23:45.278Z,95916.59
2022-10-11T04:26:13.561Z,95914.59
2022-10-11T04:28:41.888Z,95922.91
2022-10-11T04:31:10.142Z,95928.00
2022-10-11T04:33:39.915Z,95932.09
2022-10-11T04:36:09.104Z,95934.28
2022-10-11T04:38:37.516Z,95927.09
2022-10-11T04:41:10.254Z,95897.91
2022-10-11T04:43:38.561Z,95924.81
2022-10-11T04:46:08.532Z,95810.81
2022-10-11T04:48:37.387Z,95923.91
2022-10-11T04:51:07.529Z,95924.81
2022-10-11T04:53:35.902Z,95924.91
2022-10-11T04:56:08.061Z,95935.09
2022-10-11T04:58:36.600Z,95925.91
2022-10-11T05:01:05.616Z,95927.22
2022-10-11T05:03:33.910Z,95928.25
2022-10-11T05:06:05.580Z,95920.53
2022-10-11T05:08:35.805Z,95927.66
2022-10-11T05:11:07.145Z,95928.31
2022-10-11T05:13:37.007Z,95926.09
2022-10-11T05:16:10.637Z,95919.09
2022-10-11T05:18:39.941Z,95927.22
2022-10-11T05:21:10.082Z,95927.22
2022-10-11T05:23:39.650Z,95925.31
2022-10-11T05:26:08.491Z,95913.00
2022-10-11T05:28:37.068Z,95930.06
2022-10-11T05:31:05.846Z,95928.19
2022-10-11T05:33:34.086Z,95932.31
2022-10-11T05:36:02.879Z,95788.22
2022-10-11T05:38:31.844Z,95833.34
2022-10-11T05:41:02.277Z,95948.63
2022-10-11T05:43:31.062Z,95946.34
2022-10-11T05:45:59.647Z,95880.59
2022-10-11T05:48:28.640Z,95945.84
2022-10-11T05:51:00.623Z,95937.91
2022-10-11T05:53:29.029Z,95944.22
2022-10-11T05:55:57.905Z,95895.47
2022-10-11T05:58:27.813Z,95947.09
2022-10-11T06:00:57.115Z,95946.59
2022-10-11T06:03:25.744Z,95945.00
2022-10-11T06:05:56.934Z,95931.31
2022-10-11T06:08:25.622Z,95939.44
2022-10-11T06:10:53.893Z,95946.06
2022-10-11T06:13:22.171Z,95942.78
2022-10-11T06:15:51.930Z,95939.25
2022-10-11T06:18:20.106Z,95944.16
2022-10-11T06:20:48.284Z,95952.50
2022-10-11T06:23:16.473Z,95954.56
2022-10-11T06:25:44.660Z,95945.69
2022-10-11T06:28:13.112Z,95947.56
2022-10-11T06:30:41.449Z,95944.81
2022-10-11T06:33:11.099Z,95953.13
2022-10-11T06:35:39.300Z,95950.81
2022-10-11T06:38:07.580Z,95956.44
2022-10-11T06:40:35.840Z,95962.09
2022-10-11T06:43:06.536Z,95960.94
2022-10-11T06:45:34.843Z,95921.19
2022-10-11T06:48:05.686Z,95978.19
2022-10-11T06:50:58.554Z,95890.69
2022-10-11T06:53:23.754Z,95961.03
2022-10-11T06:55:52.049Z,95890.25
2022-10-11T06:58:20.365Z,95963.88
2022-10-11T07:00:48.658Z,95966.44
2022-10-11T07:03:16.945Z,95954.69
2022-10-11T07:05:46.554Z,95964.84
2022-10-11T07:08:14.793Z,95960.28
2022-10-11T07:10:43.015Z,95888.81
2022-10-11T07:13:16.256Z,95964.28
2022-10-11T07:15:45.484Z,95959.53
2022-10-11T07:18:13.719Z,95950.88
2022-10-11T07:20:43.003Z,95952.66
2022-10-11T07:23:12.672Z,95949.25
2022-10-11T07:25:40.957Z,95960.63
2022-10-11T07:28:09.248Z,95960.03
2022-10-11T07:30:40.220Z,95959.28
2022-10-11T07:33:08.525Z,95962.97
2022-10-11T07:35:37.797Z,95964.88
2022-10-11T07:38:08.417Z,95929.78
2022-10-11T07:40:43.529Z,95918.16
2022-10-11T07:43:12.498Z,95936.28
2022-10-11T07:45:41.190Z,95942.94
2022-10-11T07:48:09.949Z,95944.66
2022-10-11T07:50:38.294Z,95925.19
2022-10-11T07:53:06.493Z,95938.97
2022-10-11T07:55:40.366Z,95942.03
2022-10-11T07:58:09.923Z,95944.84
2022-10-11T08:00:38.896Z,95935.66
2022-10-11T08:03:08.443Z,95937.75
2022-10-11T08:05:39.215Z,95934.50
2022-10-11T08:08:07.482Z,95929.72
2022-10-11T08:10:40.146Z,95927.06
2022-10-11T08:13:08.655Z,95929.78
2022-10-11T08:15:37.497Z,95922.84
2022-10-11T08:18:05.935Z,95926.53
2022-10-11T08:20:34.423Z,95916.16
2022-10-11T08:23:02.619Z,95921.50
2022-10-11T08:25:30.893Z,95916.81
2022-10-11T08:28:00.591Z,95914.78
2022-10-11T08:30:28.780Z,95908.69
2022-10-11T08:32:57.057Z,95908.84
2022-10-11T08:35:25.979Z,95905.59
2022-10-11T08:37:54.276Z,95906.47
2022-10-11T08:40:23.585Z,95906.91
2022-10-11T08:42:58.888Z,95904.19
2022-10-11T08:45:34.924Z,95902.34
2022-10-11T08:48:09.857Z,95897.56
2022-10-11T08:50:39.863Z,95894.81
2022-10-11T08:53:17.177Z,95905.75
2022-10-11T08:55:49.272Z,95901.44
2022-10-11T08:58:20.805Z,95885.47
2022-10-11T09:00:54.468Z,95885.69
2022-10-11T09:03:36.206Z,95897.16
2022-10-11T09:06:13.835Z,95891.00
2022-10-11T09:08:57.525Z,95879.66
2022-10-11T09:11:35.309Z,95889.50
2022-10-11T09:14:48.258Z,95893.31
2022-10-11T09:17:31.068Z,95886.69
2022-10-11T09:20:24.903Z,95889.66
2022-10-11T09:23:02.614Z,95890.69
2022-10-11T09:25:36.411Z,95891.53
2022-10-11T09:28:16.760Z,95888.84
2022-10-11T09:30:50.626Z,95891.91
2022-10-11T09:33:22.539Z,95880.75
2022-10-11T09:35:53.710Z,95890.56
2022-10-11T09:38:39.940Z,95879.19
2022-10-11T09:41:15.812Z,95876.41
2022-10-11T09:43:48.964Z,95876.59
2022-10-11T09:46:24.551Z,95874.13
2022-10-11T09:48:57.152Z,95878.91
2022-10-11T09:51:28.799Z,95874.53
2022-10-11T09:53:59.228Z,95871.44
2022-10-11T09:56:29.680Z,95865.63
2022-10-11T09:59:26.461Z,95800.31
2022-10-11T10:02:19.886Z,95861.38
2022-10-11T10:05:15.841Z,95861.44
2022-10-11T10:08:05.001Z,95849.06
2022-10-11T10:10:41.626Z,95853.66
2022-10-11T10:13:22.047Z,95785.63
2022-10-11T10:15:53.690Z,95851.53
2022-10-11T10:18:26.080Z,95834.00
2022-10-11T10:20:59.566Z,95848.97
2022-10-11T10:23:30.985Z,95848.22
2022-10-11T10:26:17.912Z,95846.13
2022-10-11T10:29:01.701Z,95848.25
2022-10-11T10:31:49.477Z,95838.19
2022-10-11T10:34:27.418Z,95838.34
2022-10-11T10:37:00.298Z,95839.31
2022-10-11T10:39:39.420Z,95830.16
2022-10-11T10:42:15.480Z,95828.09
2022-10-11T10:44:44.582Z,95830.06
2022-10-11T10:47:20.984Z,95829.50
2022-10-11T10:49:58.499Z,95826.06
2022-10-11T10:52:48.916Z,95833.78
2022-10-11T10:55:29.928Z,95832.16
2022-10-11T10:58:07.232Z,95820.47
2022-10-11T11:00:44.885Z,95817.69
2022-10-11T11:03:23.060Z,95823.66
2022-10-11T11:06:01.795Z,95828.25
2022-10-11T11:08:43.342Z,95833.88
2022-10-11T11:11:28.503Z,95821.28
2022-10-11T11:14:05.129Z,95815.06
2022-10-11T11:16:42.745Z,95819.44
2022-10-11T11:19:21.383Z,95813.53
2022-10-11T11:21:57.532Z,95798.75
2022-10-11T11:24:38.415Z,95814.44
2022-10-11T11:27:16.638Z,95804.97
2022-10-11T11:29:55.718Z,95811.28
2022-10-11T11:32:35.090Z,95807.97
2022-10-11T11:35:10.831Z,95803.88
2022-10-11T11:37:41.598Z,95807.22
2022-10-11T11:40:18.285Z,95800.84
2022-10-11T11:42:50.473Z,95795.88
2022-10-11T11:45:23.350Z,95799.59
2022-10-11T11:47:57.345Z,95794.28
2022-10-11T11:50:28.607Z,95786.88
2022-10-11T11:53:04.871Z,95806.84
2022-10-11T11:55:49.389Z,95802.03
2022-10-11T11:58:45.556Z,95805.91
2022-10-11T12:01:28.803Z,95803.94
2022-10-11T12:04:04.795Z,95803.84
2022-10-11T12:06:35.911Z,95796.44
2022-10-11T12:09:09.399Z,95792.44
2022-10-11T12:11:47.665Z,95787.25
2022-10-11T12:14:24.948Z,95789.38
2022-10-11T12:17:21.183Z,95779.03
2022-10-11T12:20:15.865Z,95791.56
2022-10-11T12:23:00.368Z,95792.50
2022-10-11T12:25:36.904Z,95789.00
2022-10-11T12:28:48.722Z,95784.28
2022-10-11T12:31:26.238Z,95789.22
2022-10-11T12:34:17.272Z,95789.16
2022-10-11T12:36:46.844Z,95781.38
2022-10-11T12:39:51.995Z,95787.72
2022-10-11T12:42:29.650Z,95781.50
2022-10-11T12:45:35.859Z,95786.28
2022-10-11T12:48:24.862Z,95789.78
2022-10-11T12:51:05.620Z,95789.63
2022-10-11T12:54:21.442Z,95782.19
2022-10-11T12:56:50.748Z,95785.03
2022-10-11T12:59:22.561Z,95782.97
2022-10-11T13:01:54.941Z,95778.22
2022-10-11T13:04:27.009Z,95787.69
2022-10-11T13:06:57.058Z,95784.09
2022-10-11T13:09:30.099Z,95787.25
2022-10-11T13:12:04.201Z,95784.25
2022-10-11T13:14:37.695Z,95779.31
2022-10-11T13:17:16.321Z,95758.13
2022-10-11T13:19:45.039Z,95773.31
2022-10-11T13:22:19.961Z,95767.28
2022-10-11T13:24:48.366Z,95781.69
2022-10-11T13:27:22.069Z,95781.69
2022-10-11T13:29:52.776Z,95785.16
2022-10-11T13:32:26.306Z,95780.81
2022-10-11T13:34:57.077Z,95809.66
2022-10-11T13:37:28.392Z,95641.88
2022-10-11T13:39:57.928Z,95792.44
2022-10-11T13:42:30.938Z,95788.00
2022-10-11T13:45:00.484Z,95798.53
2022-10-11T13:47:33.028Z,95786.63
2022-10-11T13:50:12.171Z,95787.69
2022-10-11T13:52:58.148Z,95785.81
2022-10-11T13:55:32.965Z,95788.31
2022-10-11T13:58:03.591Z,95787.50
2022-10-11T14:00:36.596Z,95787.47
2022-10-11T14:03:17.638Z,95723.97
2022-10-11T14:05:53.946Z,95797.16
2022-10-11T14:08:25.917Z,95787.16
2022-10-11T14:10:57.849Z,95737.25
2022-10-11T14:13:32.346Z,95787.38
2022-10-11T14:16:07.044Z,95740.63
2022-10-11T14:18:43.890Z,95789.66
2022-10-11T14:21:31.747Z,95788.19
2022-10-11T14:24:01.960Z,95793.44
2022-10-11T14:26:34.965Z,95788.75
2022-10-11T14:29:06.329Z,95790.34
2022-10-11T14:31:39.177Z,95782.63
2022-10-11T14:34:17.669Z,95788.09
2022-10-11T14:36:45.961Z,95798.44
2022-10-11T14:39:17.732Z,95795.47
2022-10-11T14:41:47.630Z,95797.69
2022-10-11T14:44:19.462Z,95796.00
2022-10-11T14:46:49.649Z,95793.91
2022-10-11T14:49:21.678Z,95790.09
2022-10-11T14:51:51.861Z,95787.28
2022-10-11T14:54:22.519Z,95787.75
2022-10-11T14:56:51.198Z,95784.41
2022-10-11T14:59:21.243Z,95771.44
2022-10-11T15:01:51.955Z,95780.16
2022-10-11T15:04:22.769Z,95776.81
2022-10-11T15:06:52.284Z,95793.63
2022-10-11T15:09:21.754Z,95787.88
2022-10-11T15:11:51.304Z,95789.97
2022-10-11T15:14:19.637Z,95791.19
2022-10-11T15:16:48.163Z,95793.41
2022-10-11T15:19:18.005Z,95765.91
2022-10-11T15:21:48.307Z,95793.06
2022-10-11T15:24:20.070Z,95798.16
2022-10-11T15:26:49.033Z,95794.41
2022-10-11T15:29:18.550Z,95803.88
2022-10-11T15:31:49.435Z,95714.03
2022-10-11T15:34:18.036Z,95797.94
2022-10-11T15:36:47.838Z,95756.53
2022-10-11T15:39:28.380Z,95800.19
2022-10-11T15:41:56.639Z,95807.19
2022-10-11T15:44:24.920Z,95800.53
2022-10-11T15:46:53.484Z,95808.31
2022-10-11T15:49:21.973Z,95809.31
2022-10-11T15:51:51.690Z,95803.78
2022-10-11T15:54:20.046Z,95790.16
2022-10-11T15:56:48.405Z,95801.75
2022-10-11T15:59:16.760Z,95740.53
2022-10-11T16:01:45.226Z,95815.31
2022-10-11T16:04:13.594Z,95800.78
2022-10-11T16:06:42.269Z,95819.31
2022-10-11T16:09:11.970Z,95826.44
2022-10-11T16:11:40.236Z,95820.72
2022-10-11T16:14:08.561Z,95822.59
2022-10-11T16:16:36.886Z,95836.84
2022-10-11T16:19:05.178Z,95843.50
2022-10-11T16:21:33.441Z,95834.03
2022-10-11T16:24:01.660Z,95854.50
2022-10-11T16:26:31.781Z,95848.03
2022-10-11T16:29:00.320Z,95847.13
2022-10-11T16:31:28.642Z,95854.50
2022-10-11T16:33:57.365Z,95846.75
2022-10-11T16:36:37.101Z,95847.25
2022-10-11T16:39:09.973Z,95847.75
2022-10-11T16:41:39.764Z,95763.91
2022-10-11T16:44:08.813Z,95856.41
2022-10-11T16:46:37.100Z,95815.75
2022-10-11T16:49:06.675Z,95833.66
2022-10-11T16:51:35.291Z,95849.50
2022-10-11T16:54:03.589Z,95856.97
2022-10-11T16:56:37.328Z,95855.19
2022-10-11T16:59:09.541Z,95857.16
2022-10-11T17:01:38.773Z,95840.69
2022-10-11T17:04:07.441Z,95845.34
2022-10-11T17:06:38.752Z,95861.63
2022-10-11T17:09:07.423Z,95852.59
2022-10-11T17:11:35.737Z,95857.53
2022-10-11T17:14:07.432Z,95856.19
2022-10-11T17:16:37.353Z,95861.53
2022-10-11T17:19:06.206Z,95852.22
2022-10-11T17:21:34.622Z,95862.72
2022-10-11T17:24:03.706Z,95853.91
2022-10-11T17:26:33.081Z,95855.78
2022-10-11T17:29:01.645Z,95858.25
2022-10-11T17:31:30.653Z,95856.09
2022-10-11T17:34:02.084Z,95769.78
2022-10-11T17:36:34.134Z,95851.13
2022-10-11T17:39:06.903Z,95859.22
2022-10-11T17:41:35.571Z,95851.31
2022-10-11T17:44:04.431Z,95867.22
2022-10-11T17:46:33.626Z,95868.09
2022-10-11T17:49:06.170Z,95844.38
2022-10-11T17:51:35.941Z,95871.34
2022-10-11T17:54:04.723Z,95865.50
2022-10-11T17:56:37.701Z,95869.78
2022-10-11T17:59:07.531Z,95867.28
2022-10-11T18:01:36.843Z,95879.81
2022-10-11T18:04:10.588Z,95878.00
2022-10-11T18:06:41.445Z,95883.47
2022-10-11T18:09:10.087Z,95773.59
2022-10-11T18:11:39.910Z,95875.91
2022-10-11T18:14:08.479Z,95873.34
2022-10-11T18:16:38.490Z,95881.69
2022-10-11T18:19:11.564Z,95877.94
2022-10-11T18:21:42.734Z,95880.72
2022-10-11T18:24:15.140Z,95880.19
2022-10-11T18:26:44.244Z,95874.72
2022-10-11T18:29:13.932Z,95878.41
2022-10-11T18:31:42.887Z,95765.78
2022-10-11T18:34:15.963Z,95871.16
2022-10-11T18:36:45.824Z,95660.47
2022-10-11T18:39:16.844Z,95814.09
2022-10-11T18:41:45.744Z,95872.16
2022-10-11T18:44:17.308Z,95868.41
2022-10-11T18:46:46.209Z,95869.06
2022-10-11T18:49:18.266Z,95876.41
2022-10-11T18:51:48.058Z,95873.38
2022-10-11T18:54:20.264Z,95839.34
2022-10-11T18:56:50.516Z,95864.25
2022-10-11T18:59:18.854Z,95871.56
2022-10-11T19:01:48.289Z,95876.75
2022-10-11T19:04:20.478Z,95745.41
2022-10-11T19:06:50.695Z,95802.28
2022-10-11T19:09:22.474Z,95866.31
2022-10-11T19:11:53.603Z,95849.84
2022-10-11T19:14:25.804Z,95866.31
2022-10-11T19:16:56.395Z,95873.75
2022-10-11T19:19:29.810Z,95866.19
2022-10-11T19:21:58.664Z,95872.06
2022-10-11T19:24:30.272Z,95874.06
2022-10-11T19:27:02.636Z,95870.09
2022-10-11T19:29:31.692Z,95821.03
2022-10-11T19:32:01.551Z,95875.03
2022-10-11T19:34:32.811Z,95829.94
2022-10-11T19:37:03.434Z,95877.22
2022-10-11T19:39:32.236Z,95877.88
2022-10-11T19:42:02.166Z,95874.72
2022-10-11T19:44:31.768Z,95876.09
2022-10-11T19:47:05.315Z,95878.78
2022-10-11T19:49:35.699Z,95878.28
2022-10-11T19:52:04.035Z,95875.53
2022-10-11T19:54:33.201Z,95876.41
2022-10-11T19:57:02.133Z,95836.19
2022-10-11T19:59:30.452Z,95864.81
2022-10-11T20:01:59.724Z,95850.63
2022-10-11T20:04:51.091Z,95885.06
2022-10-11T20:07:17.875Z,95875.84
2022-10-11T20:09:46.233Z,95877.41
2022-10-11T20:12:14.525Z,95881.28
2022-10-11T20:14:42.801Z,95879.41
2022-10-11T20:17:11.174Z,95882.66
2022-10-11T20:19:39.601Z,95882.69
2022-10-11T20:22:07.920Z,95865.31
2022-10-11T20:24:37.684Z,95871.16
2022-10-11T20:27:06.847Z,95874.25
2022-10-11T20:29:35.164Z,95867.59
2022-10-11T20:32:03.463Z,95873.53
2022-10-11T20:34:33.410Z,95865.66
2022-10-11T20:37:01.709Z,95865.41
2022-10-11T20:39:30.094Z,95876.84
2022-10-11T20:41:59.760Z,95876.22
2022-10-11T20:44:28.110Z,95877.31
2022-10-11T20:47:00.300Z,95879.88
2022-10-11T20:49:31.345Z,95878.78
2022-10-11T20:51:59.613Z,95877.94
2022-10-11T20:54:29.083Z,95880.50
2022-10-11T20:56:59.277Z,95879.22
2022-10-11T20:59:29.148Z,95868.78
2022-10-11T21:01:57.497Z,95872.16
2022-10-11T21:04:25.741Z,95874.00
2022-10-11T21:06:53.975Z,95874.63
2022-10-11T21:09:22.388Z,95876.81
2022-10-11T21:11:51.613Z,95868.63
2022-10-11T21:14:19.958Z,95873.13
2022-10-11T21:16:49.575Z,95879.09
2022-10-11T21:19:17.787Z,95875.44
2022-10-11T21:21:53.348Z,95873.34
2022-10-11T21:24:22.683Z,95791.63
2022-10-11T21:26:51.064Z,95874.91
2022-10-11T21:29:19.557Z,95869.38
2022-10-11T21:31:49.224Z,95864.03
2022-10-11T21:34:17.668Z,95844.56
2022-10-11T21:36:45.952Z,95876.13
2022-10-11T21:39:14.267Z,95866.59
2022-10-11T21:41:43.236Z,95854.31
2022-10-11T21:44:11.600Z,95857.34
2022-10-11T21:47:06.522Z,95863.72
2022-10-11T21:49:29.958Z,95868.28
2022-10-11T21:51:58.201Z,95865.41
2022-10-11T21:54:26.539Z,95871.78
2022-10-11T21:56:54.924Z,95866.59
2022-10-11T21:59:23.180Z,95866.19
2022-10-11T22:01:51.942Z,95856.97
2022-10-11T22:04:20.366Z,95863.41
2022-10-11T22:06:50.044Z,95866.47
2022-10-11T22:09:18.323Z,95887.53
2022-10-11T22:11:46.600Z,95849.16
2022-10-11T22:14:14.847Z,95860.69
2022-10-11T22:16:43.108Z,95858.22
2022-10-11T22:19:11.416Z,95871.88
2022-10-11T22:21:44.759Z,95855.06
2022-10-11T22:24:14.856Z,95858.81
2022-10-11T22:26:43.088Z,95858.41
2022-10-11T22:29:11.371Z,95850.91
2022-10-11T22:31:39.641Z,95858.31
2022-10-11T22:34:07.885Z,95807.81
2022-10-11T22:36:36.329Z,95853.72
2022-10-11T22:39:08.174Z,95856.66
2022-10-11T22:41:38.469Z,95858.84
2022-10-11T22:44:06.961Z,95863.66
2022-10-11T22:46:35.296Z,95850.81
2022-10-11T22:49:03.637Z,95639.31
2022-10-11T22:51:31.918Z,95867.91
2022-10-11T22:54:00.180Z,95830.84
2022-10-11T22:56:28.491Z,95866.38
2022-10-11T22:58:59.461Z,95868.16
2022-10-11T23:01:27.783Z,95870.97
2022-10-11T23:03:56.695Z,95869.19
2022-10-11T23:06:25.094Z,95876.56
2022-10-11T23:08:53.327Z,95865.53
2022-10-11T23:11:21.611Z,95876.50
2022-10-11T23:13:49.913Z,95879.63
2022-10-11T23:16:19.538Z,95878.59
2022-10-11T23:18:47.798Z,95887.72
2022-10-11T23:21:16.033Z,95887.22
2022-10-11T23:23:44.255Z,95884.41
2022-10-11T23:26:14.696Z,95881.66
2022-10-11T23:28:44.416Z,95879.56
2022-10-11T23:31:15.089Z,95850.28
2022-10-11T23:33:45.210Z,95879.19
2022-10-11T23:36:15.885Z,95879.91
2022-10-11T23:38:44.162Z,95881.75
2022-10-11T23:41:12.657Z,95881.66
2022-10-11T23:43:40.916Z,95875.31
2022-10-11T23:46:09.395Z,95877.44
2022-10-11T23:48:37.660Z,95825.50
2022-10-11T23:51:07.763Z,95877.28
2022-10-11T23:53:36.699Z,95880.13
2022-10-11T23:56:05.663Z,95869.81
2022-10-11T23:58:33.887Z,95872.31
